Time;durP1;ratioP1;P1;durP2;ratioP2;P2;SDS_P1;SDS_P2;PMS_P1;PMS_P2;Temp;Humidity;BMP_temperature;BMP_pressure;BME280_temperature;BME280_humidity;BME280_pressure;Samples;Min_cycle;Max_cycle;Signal;HPM_P1;HPM_P2
2023/09/27 00:02:23;;;;;;;12.13;7.53;;;;;;;;;;5013748;28;20041;-75
2023/09/27 00:04:48;;;;;;;12.67;7.27;;;;;;;;;;5013604;28;20282;-74
2023/09/27 00:07:13;;;;;;;11.63;7.00;;;;;;;;;;5013560;28;20279;-75
2023/09/27 00:09:39;;;;;;;11.02;7.38;;;;;;;;;;5012216;28;20273;-75
2023/09/27 00:12:05;;;;;;;10.63;7.65;;;;;;;;;;5013691;28;20397;-75
2023/09/27 00:14:31;;;;;;;10.73;7.53;;;;;;;;;;5013476;28;20022;-75
2023/09/27 00:16:58;;;;;;;13.25;7.55;;;;;;;;;;5013681;28;20030;-74
2023/09/27 00:19:23;;;;;;;8.80;7.20;;;;;;;;;;5013371;28;20017;-75
2023/09/27 00:21:49;;;;;;;13.90;8.05;;;;;;;;;;5013463;28;20101;-75
2023/09/27 00:24:14;;;;;;;14.35;7.85;;;;;;;;;;5013285;28;20128;-75
2023/09/27 00:26:39;;;;;;;11.23;7.50;;;;;;;;;;5013525;28;20041;-75
2023/09/27 00:29:05;;;;;;;13.83;6.70;;;;;;;;;;5013197;28;20317;-75
2023/09/27 00:31:31;;;;;;;14.65;7.32;;;;;;;;;;5013266;28;20346;-74
2023/09/27 00:33:56;;;;;;;12.13;7.57;;;;;;;;;;5013251;28;20503;-74
2023/09/27 00:36:21;;;;;;;16.73;7.77;;;;;;;;;;5013309;28;20033;-74
2023/09/27 00:38:46;;;;;;;10.70;7.28;;;;;;;;;;5013096;28;20261;-75
2023/09/27 00:41:11;;;;;;;14.60;7.50;;;;;;;;;;5013403;28;20034;-75
2023/09/27 00:43:37;;;;;;;10.10;7.07;;;;;;;;;;5013125;28;20259;-75
2023/09/27 00:46:05;;;;;;;12.77;7.00;;;;;;;;;;5012984;28;20382;-75
2023/09/27 00:48:32;;;;;;;17.13;7.50;;;;;;;;;;5012950;28;20113;-75
2023/09/27 00:50:58;;;;;;;10.25;7.00;;;;;;;;;;5011792;28;20121;-74
2023/09/27 00:53:26;;;;;;;14.82;7.07;;;;;;;;;;5013334;28;20058;-75
2023/09/27 00:55:52;;;;;;;11.70;7.10;;;;;;;;;;5013149;28;20061;-75
2023/09/27 00:58:19;;;;;;;12.52;7.68;;;;;;;;;;5011729;28;20054;-75
2023/09/27 01:00:49;;;;;;;13.43;7.38;;;;;;;;;;5013374;28;20109;-75
2023/09/27 01:03:15;;;;;;;11.52;7.32;;;;;;;;;;5012945;28;20029;-75
2023/09/27 01:05:41;;;;;;;12.93;6.90;;;;;;;;;;5011689;28;20506;-75
2023/09/27 01:08:07;;;;;;;10.75;7.07;;;;;;;;;;5012885;28;20030;-75
2023/09/27 01:10:34;;;;;;;12.00;7.47;;;;;;;;;;5013144;28;20167;-74
2023/09/27 01:13:00;;;;;;;11.68;7.70;;;;;;;;;;5013103;28;20029;-75
2023/09/27 01:15:25;;;;;;;9.90;7.00;;;;;;;;;;5012875;28;20026;-75
2023/09/27 01:17:58;;;;;;;9.55;7.30;;;;;;;;;;5011548;28;20030;-75
2023/09/27 01:20:25;;;;;;;11.60;7.30;;;;;;;;;;5012828;28;20037;-75
2023/09/27 01:23:02;;;;;;;11.18;7.38;;;;;;;;;;5011531;28;20022;-75
2023/09/27 01:25:30;;;;;;;9.00;6.43;;;;;;;;;;5013222;28;20036;-75
2023/09/27 01:27:57;;;;;;;16.63;8.85;;;;;;;;;;5013037;28;20068;-75
2023/09/27 01:30:24;;;;;;;11.20;7.07;;;;;;;;;;5012677;28;20045;-75
2023/09/27 01:32:50;;;;;;;10.57;7.15;;;;;;;;;;5012597;28;20037;-74
2023/09/27 01:35:15;;;;;;;10.02;7.10;;;;;;;;;;5012631;28;20153;-75
2023/09/27 01:37:40;;;;;;;10.20;6.50;;;;;;;;;;5012662;28;20034;-75
2023/09/27 01:40:09;;;;;;;10.93;6.72;;;;;;;;;;5012552;28;20061;-75
2023/09/27 01:42:35;;;;;;;9.65;6.85;;;;;;;;;;5013782;28;20033;-75
2023/09/27 01:45:00;;;;;;;12.30;7.40;;;;;;;;;;5016289;28;20018;-74
2023/09/27 01:47:25;;;;;;;8.93;6.60;;;;;;;;;;5016119;28;20072;-75
2023/09/27 01:49:51;;;;;;;12.80;7.57;;;;;;;;;;5016013;28;20259;-75
2023/09/27 01:52:16;;;;;;;10.35;7.15;;;;;;;;;;5015927;28;20259;-75
2023/09/27 01:54:41;;;;;;;15.77;7.50;;;;;;;;;;5015965;28;20100;-75
2023/09/27 01:57:06;;;;;;;13.17;6.60;;;;;;;;;;5016037;28;20139;-75
2023/09/27 01:59:32;;;;;;;12.30;7.38;;;;;;;;;;5015820;28;20282;-75
2023/09/27 02:01:57;;;;;;;10.20;6.97;;;;;;;;;;5015829;28;20101;-75
2023/09/27 02:04:23;;;;;;;13.20;7.13;;;;;;;;;;5015772;28;20048;-75
2023/09/27 02:06:49;;;;;;;10.45;6.80;;;;;;;;;;5015738;28;20121;-75
2023/09/27 02:09:14;;;;;;;12.05;6.93;;;;;;;;;;5015607;28;20438;-75
2023/09/27 02:11:39;;;;;;;10.37;7.30;;;;;;;;;;5015653;28;20026;-76
2023/09/27 02:14:05;;;;;;;12.73;6.97;;;;;;;;;;5015634;28;20263;-75
2023/09/27 02:16:33;;;;;;;10.23;6.93;;;;;;;;;;5015577;28;20022;-75
2023/09/27 02:18:58;;;;;;;12.38;6.68;;;;;;;;;;5015514;28;20018;-76
2023/09/27 02:21:23;;;;;;;11.52;6.72;;;;;;;;;;5015726;28;20022;-75
2023/09/27 02:23:49;;;;;;;9.43;6.65;;;;;;;;;;5014185;28;20393;-75
2023/09/27 02:26:14;;;;;;;12.82;6.63;;;;;;;;;;5015329;28;20025;-75
2023/09/27 02:28:39;;;;;;;10.48;7.13;;;;;;;;;;5014102;28;20412;-74
2023/09/27 02:31:12;;;;;;;11.43;6.82;;;;;;;;;;5015137;28;20068;-74
2023/09/27 02:33:38;;;;;;;11.57;7.00;;;;;;;;;;5015601;28;20018;-74
2023/09/27 02:36:03;;;;;;;15.52;7.43;;;;;;;;;;5013939;28;20391;-74
2023/09/27 02:38:29;;;;;;;9.93;6.90;;;;;;;;;;5013788;28;20036;-74
2023/09/27 02:40:54;;;;;;;9.88;6.88;;;;;;;;;;5015579;28;20477;-74
2023/09/27 02:43:19;;;;;;;12.52;7.15;;;;;;;;;;5015072;28;20113;-75
2023/09/27 02:45:45;;;;;;;13.40;7.00;;;;;;;;;;5015142;28;20383;-76
2023/09/27 02:48:10;;;;;;;10.98;7.18;;;;;;;;;;5014910;28;20629;-76
2023/09/27 02:50:36;;;;;;;12.35;7.38;;;;;;;;;;5014941;28;20076;-75
2023/09/27 02:53:01;;;;;;;15.85;7.10;;;;;;;;;;5013390;28;20025;-75
2023/09/27 02:55:26;;;;;;;11.32;6.93;;;;;;;;;;5014169;28;20025;-76
2023/09/27 02:57:52;;;;;;;9.93;6.97;;;;;;;;;;5013516;28;20045;-75
2023/09/27 03:00:18;;;;;;;11.18;6.97;;;;;;;;;;5014669;28;20491;-74
2023/09/27 03:02:44;;;;;;;20.27;7.15;;;;;;;;;;5014746;28;20030;-75
2023/09/27 03:05:09;;;;;;;9.93;6.90;;;;;;;;;;5013258;28;20032;-74
2023/09/27 03:07:35;;;;;;;11.60;6.60;;;;;;;;;;5014790;28;20030;-76
2023/09/27 03:10:08;;;;;;;10.35;6.70;;;;;;;;;;5014512;28;20029;-75
2023/09/27 03:12:33;;;;;;;15.27;6.83;;;;;;;;;;5014609;28;20475;-75
2023/09/27 03:14:58;;;;;;;10.43;6.53;;;;;;;;;;5014457;28;20029;-75
2023/09/27 03:17:23;;;;;;;12.65;6.47;;;;;;;;;;5014465;28;20428;-74
2023/09/27 03:19:49;;;;;;;12.15;6.88;;;;;;;;;;5014274;28;20041;-75
2023/09/27 03:22:14;;;;;;;12.45;7.15;;;;;;;;;;5014612;28;20022;-75
2023/09/27 03:24:39;;;;;;;9.15;6.55;;;;;;;;;;5014272;28;20104;-75
2023/09/27 03:27:05;;;;;;;9.00;6.55;;;;;;;;;;5014379;28;20496;-75
2023/09/27 03:29:30;;;;;;;13.38;7.43;;;;;;;;;;5014170;28;20148;-75
2023/09/27 03:31:56;;;;;;;11.35;7.00;;;;;;;;;;5014077;28;20034;-75
2023/09/27 03:34:21;;;;;;;12.57;7.00;;;;;;;;;;5014392;28;20076;-75
2023/09/27 03:36:48;;;;;;;11.13;7.50;;;;;;;;;;5014103;28;20393;-75
2023/09/27 03:39:13;;;;;;;12.63;6.97;;;;;;;;;;5013939;28;20105;-75
2023/09/27 03:41:39;;;;;;;9.70;7.00;;;;;;;;;;5013496;28;20121;-75
2023/09/27 03:44:05;;;;;;;10.27;7.03;;;;;;;;;;5012617;28;20022;-75
2023/09/27 03:46:30;;;;;;;13.90;6.85;;;;;;;;;;5014172;28;20018;-75
2023/09/27 03:48:56;;;;;;;12.50;7.43;;;;;;;;;;5012554;28;20032;-75
2023/09/27 03:51:25;;;;;;;11.80;6.75;;;;;;;;;;5013810;28;20050;-75
2023/09/27 03:53:50;;;;;;;12.05;6.65;;;;;;;;;;5013894;28;20034;-75
2023/09/27 03:56:15;;;;;;;10.65;6.90;;;;;;;;;;5012406;28;20396;-75
2023/09/27 03:58:40;;;;;;;12.07;7.30;;;;;;;;;;5013902;28;20080;-75
2023/09/27 04:01:05;;;;;;;9.70;6.63;;;;;;;;;;5013692;28;20389;-75
2023/09/27 04:03:31;;;;;;;10.98;7.20;;;;;;;;;;5013938;28;20354;-75
2023/09/27 04:05:57;;;;;;;9.48;6.75;;;;;;;;;;5013241;28;20025;-75
2023/09/27 04:08:22;;;;;;;10.80;6.45;;;;;;;;;;5012428;28;20026;-75
2023/09/27 04:10:48;;;;;;;10.75;6.63;;;;;;;;;;5013617;28;20025;-75
2023/09/27 04:13:14;;;;;;;12.07;6.80;;;;;;;;;;5013552;28;20029;-75
2023/09/27 04:15:39;;;;;;;13.35;6.72;;;;;;;;;;5013540;28;20021;-75
2023/09/27 04:18:05;;;;;;;10.30;6.20;;;;;;;;;;5013316;28;20037;-74
2023/09/27 04:20:30;;;;;;;11.48;6.65;;;;;;;;;;5013344;28;20026;-75
2023/09/27 04:22:56;;;;;;;11.55;6.70;;;;;;;;;;5013289;28;20033;-74
2023/09/27 04:25:22;;;;;;;11.70;6.53;;;;;;;;;;5013332;28;20048;-76
2023/09/27 04:27:53;;;;;;;19.15;6.82;;;;;;;;;;5013363;28;20021;-74
2023/09/27 04:30:19;;;;;;;12.50;7.32;;;;;;;;;;5013150;28;20442;-75
2023/09/27 04:32:46;;;;;;;11.57;7.32;;;;;;;;;;5013268;28;20034;-75
2023/09/27 04:35:13;;;;;;;11.93;7.32;;;;;;;;;;5013400;28;20041;-75
2023/09/27 04:37:39;;;;;;;10.23;7.03;;;;;;;;;;5013490;28;20550;-75
2023/09/27 04:40:11;;;;;;;15.82;7.25;;;;;;;;;;5013041;28;20037;-75
2023/09/27 04:42:44;;;;;;;10.23;6.53;;;;;;;;;;5012414;28;20034;-75
2023/09/27 04:45:12;;;;;;;17.13;7.28;;;;;;;;;;5013149;28;20026;-72
2023/09/27 04:47:39;;;;;;;11.73;6.88;;;;;;;;;;5013062;28;20041;-75
2023/09/27 04:50:09;;;;;;;12.68;7.00;;;;;;;;;;5013083;28;20053;-74
2023/09/27 04:52:35;;;;;;;12.82;6.88;;;;;;;;;;5013061;28;20026;-74
2023/09/27 04:55:01;;;;;;;11.35;7.43;;;;;;;;;;5011683;28;20025;-75
2023/09/27 04:57:27;;;;;;;12.38;6.97;;;;;;;;;;5013000;28;20076;-75
2023/09/27 04:59:55;;;;;;;12.43;6.63;;;;;;;;;;5011717;28;20481;-75
2023/09/27 05:02:20;;;;;;;11.20;7.13;;;;;;;;;;5013919;28;20030;-78
2023/09/27 05:04:47;;;;;;;8.88;5.90;;;;;;;;;;5014309;28;20033;-77
2023/09/27 05:07:16;;;;;;;15.20;6.78;;;;;;;;;;5012314;28;20026;-76
2023/09/27 05:09:42;;;;;;;35.00;15.90;;;;;;;;;;5012754;28;20382;-76
2023/09/27 05:12:07;;;;;;;12.70;8.63;;;;;;;;;;5012970;28;20092;-76
2023/09/27 05:14:32;;;;;;;13.73;7.70;;;;;;;;;;5012914;28;20532;-77
2023/09/27 05:16:57;;;;;;;8.68;6.78;;;;;;;;;;5011862;28;20060;-78
2023/09/27 05:19:23;;;;;;;11.65;6.47;;;;;;;;;;5017629;28;20026;-77
2023/09/27 05:21:48;;;;;;;10.18;6.38;;;;;;;;;;5014629;28;20034;-76
2023/09/27 05:24:13;;;;;;;13.68;6.43;;;;;;;;;;5014177;28;20143;-77
2023/09/27 05:26:38;;;;;;;11.90;6.75;;;;;;;;;;5016783;28;20476;-76
2023/09/27 05:29:04;;;;;;;12.93;7.00;;;;;;;;;;5014363;28;20033;-75
2023/09/27 05:31:29;;;;;;;13.65;6.43;;;;;;;;;;5014939;28;20808;-74
2023/09/27 05:33:54;;;;;;;9.50;6.45;;;;;;;;;;5019258;28;20025;-74
2023/09/27 05:36:19;;;;;;;10.93;7.25;;;;;;;;;;5014914;28;20022;-74
2023/09/27 05:38:45;;;;;;;10.33;7.00;;;;;;;;;;5016008;28;20030;-74
2023/09/27 05:41:10;;;;;;;12.60;6.93;;;;;;;;;;5016237;28;20259;-74
2023/09/27 05:43:35;;;;;;;12.90;6.85;;;;;;;;;;5015953;28;20040;-74
2023/09/27 05:46:01;;;;;;;9.77;6.38;;;;;;;;;;5016038;28;20032;-74
2023/09/27 05:48:26;;;;;;;11.35;7.15;;;;;;;;;;5015969;28;20030;-74
2023/09/27 05:50:51;;;;;;;11.20;7.70;;;;;;;;;;5016650;28;20022;-74
2023/09/27 05:53:17;;;;;;;14.18;7.43;;;;;;;;;;5015952;28;20105;-74
2023/09/27 05:55:44;;;;;;;10.95;7.40;;;;;;;;;;5014787;28;20526;-74
2023/09/27 05:58:09;;;;;;;11.07;7.07;;;;;;;;;;5015615;28;20053;-74
2023/09/27 06:00:40;;;;;;;11.10;6.88;;;;;;;;;;5015719;28;20051;-74
2023/09/27 06:03:05;;;;;;;12.48;7.25;;;;;;;;;;5015867;28;20017;-75
2023/09/27 06:05:32;;;;;;;14.57;7.93;;;;;;;;;;5015650;28;20037;-74
2023/09/27 06:07:57;;;;;;;11.63;7.57;;;;;;;;;;5013529;28;20030;-74
2023/09/27 06:10:22;;;;;;;12.70;7.45;;;;;;;;;;5015300;28;20164;-75
2023/09/27 06:12:48;;;;;;;14.93;7.53;;;;;;;;;;5015584;28;20037;-75
2023/09/27 06:15:14;;;;;;;9.20;6.90;;;;;;;;;;5015986;28;20042;-75
2023/09/27 06:17:40;;;;;;;9.75;7.35;;;;;;;;;;5014223;28;20022;-75
2023/09/27 06:20:11;;;;;;;11.88;7.65;;;;;;;;;;5015524;28;20049;-75
2023/09/27 06:22:37;;;;;;;12.50;7.65;;;;;;;;;;5015805;28;20025;-75
2023/09/27 06:25:02;;;;;;;13.95;7.25;;;;;;;;;;5015309;28;20021;-74
2023/09/27 06:27:28;;;;;;;13.68;7.47;;;;;;;;;;5016177;28;20029;-74
2023/09/27 06:29:53;;;;;;;13.85;7.75;;;;;;;;;;5015119;28;20057;-74
2023/09/27 06:32:19;;;;;;;16.65;7.75;;;;;;;;;;5015125;28;20030;-74
2023/09/27 06:34:44;;;;;;;11.38;7.80;;;;;;;;;;5015166;28;20020;-74
2023/09/27 06:37:09;;;;;;;14.97;7.87;;;;;;;;;;5015137;28;20022;-74
2023/09/27 06:39:35;;;;;;;21.88;7.40;;;;;;;;;;5015923;28;20263;-74
2023/09/27 06:42:00;;;;;;;10.88;7.20;;;;;;;;;;5015306;28;20026;-78
2023/09/27 06:44:25;;;;;;;13.90;7.72;;;;;;;;;;5015558;28;20445;-73
2023/09/27 06:46:52;;;;;;;10.57;7.30;;;;;;;;;;5015247;28;20026;-76
2023/09/27 06:49:19;;;;;;;11.90;7.05;;;;;;;;;;5015554;28;20338;-78
2023/09/27 06:51:44;;;;;;;15.35;7.70;;;;;;;;;;5016912;28;20029;-75
2023/09/27 06:54:09;;;;;;;15.73;7.85;;;;;;;;;;5015118;28;20447;-74
2023/09/27 06:56:35;;;;;;;11.05;7.63;;;;;;;;;;5014776;28;20066;-75
2023/09/27 06:59:00;;;;;;;22.25;7.80;;;;;;;;;;5015263;28;20499;-75
2023/09/27 07:01:26;;;;;;;16.20;7.70;;;;;;;;;;5012885;28;20026;-76
2023/09/27 07:03:51;;;;;;;12.77;7.80;;;;;;;;;;5013212;28;20037;-76
2023/09/27 07:06:17;;;;;;;16.75;8.30;;;;;;;;;;5014382;28;20061;-75
2023/09/27 07:08:44;;;;;;;20.63;8.77;;;;;;;;;;5014235;28;20029;-75
2023/09/27 07:11:09;;;;;;;12.20;8.73;;;;;;;;;;5014338;28;20559;-75
2023/09/27 07:13:37;;;;;;;23.17;8.57;;;;;;;;;;5014244;28;20041;-75
2023/09/27 07:16:26;;;;;;;16.35;8.07;;;;;;;;;;5014253;28;20080;-75
2023/09/27 07:18:59;;;;;;;13.25;7.47;;;;;;;;;;5014732;28;20029;-75
2023/09/27 07:21:24;;;;;;;13.35;7.80;;;;;;;;;;5013394;28;20026;-75
2023/09/27 07:23:51;;;;;;;10.90;7.63;;;;;;;;;;5012783;28;20400;-75
2023/09/27 07:26:16;;;;;;;14.23;7.85;;;;;;;;;;5014183;28;20531;-75
2023/09/27 07:28:42;;;;;;;17.60;7.80;;;;;;;;;;5014014;28;20057;-75
2023/09/27 07:31:08;;;;;;;15.52;8.20;;;;;;;;;;5013801;28;20034;-75
2023/09/27 07:33:33;;;;;;;15.52;8.82;;;;;;;;;;5014215;28;20029;-75
2023/09/27 07:35:59;;;;;;;17.13;8.77;;;;;;;;;;5014081;28;20018;-75
2023/09/27 07:38:25;;;;;;;15.93;8.50;;;;;;;;;;5013834;28;20389;-75
2023/09/27 07:40:51;;;;;;;13.75;8.27;;;;;;;;;;5011984;28;20052;-75
2023/09/27 07:43:16;;;;;;;18.67;8.48;;;;;;;;;;5014175;28;20456;-75
2023/09/27 07:45:42;;;;;;;17.77;9.02;;;;;;;;;;5013698;28;20036;-75
2023/09/27 07:48:08;;;;;;;16.13;8.45;;;;;;;;;;5013886;28;20417;-75
2023/09/27 07:50:37;;;;;;;12.15;7.95;;;;;;;;;;5013985;28;20397;-75
2023/09/27 07:53:03;;;;;;;16.00;8.10;;;;;;;;;;5013825;28;20443;-75
2023/09/27 07:55:32;;;;;;;13.63;8.60;;;;;;;;;;5013625;28;20032;-74
2023/09/27 07:57:58;;;;;;;12.88;8.05;;;;;;;;;;5013528;28;20538;-74
2023/09/27 08:00:28;;;;;;;15.98;8.52;;;;;;;;;;5013409;28;20026;-74
2023/09/27 08:02:55;;;;;;;19.40;8.95;;;;;;;;;;5012204;28;20057;-75
2023/09/27 08:05:22;;;;;;;14.38;8.38;;;;;;;;;;5013416;28;20120;-75
2023/09/27 08:07:48;;;;;;;16.05;7.47;;;;;;;;;;5012094;28;20034;-75
2023/09/27 08:10:15;;;;;;;13.20;8.23;;;;;;;;;;5011747;28;20112;-74
2023/09/27 08:12:40;;;;;;;14.23;8.60;;;;;;;;;;5011681;28;20026;-74
2023/09/27 08:15:07;;;;;;;12.15;8.30;;;;;;;;;;5013276;28;20448;-74
2023/09/27 08:17:33;;;;;;;12.68;8.00;;;;;;;;;;5013162;28;20113;-74
2023/09/27 08:19:59;;;;;;;15.00;8.07;;;;;;;;;;5013104;28;20061;-75
2023/09/27 08:22:25;;;;;;;14.52;8.52;;;;;;;;;;5014036;28;20369;-74
2023/09/27 08:24:50;;;;;;;14.70;8.07;;;;;;;;;;5013025;28;20075;-74
2023/09/27 08:27:17;;;;;;;23.15;9.18;;;;;;;;;;5013080;28;20041;-74
2023/09/27 08:29:42;;;;;;;12.50;7.53;;;;;;;;;;5013468;28;20488;-76
2023/09/27 08:32:08;;;;;;;13.40;7.75;;;;;;;;;;5013122;28;20044;-74
2023/09/27 08:34:34;;;;;;;13.00;7.40;;;;;;;;;;5012940;28;20037;-75
2023/09/27 08:37:00;;;;;;;17.15;7.30;;;;;;;;;;5013047;28;20028;-75
2023/09/27 08:39:28;;;;;;;11.98;7.30;;;;;;;;;;5013035;28;20491;-76
2023/09/27 08:41:55;;;;;;;11.27;7.40;;;;;;;;;;5012767;28;20032;-75
2023/09/27 08:44:24;;;;;;;14.10;8.20;;;;;;;;;;5012815;28;20104;-75
2023/09/27 08:46:50;;;;;;;13.25;7.88;;;;;;;;;;5013331;28;20033;-75
2023/09/27 08:49:17;;;;;;;10.77;7.43;;;;;;;;;;5010376;28;20057;-75
2023/09/27 08:51:44;;;;;;;13.63;7.53;;;;;;;;;;5011508;28;20028;-75
2023/09/27 08:54:11;;;;;;;13.07;7.28;;;;;;;;;;5015821;28;20076;-75
2023/09/27 08:56:36;;;;;;;12.98;7.75;;;;;;;;;;5016943;28;20036;-75
2023/09/27 08:59:03;;;;;;;11.82;7.28;;;;;;;;;;5016983;28;20029;-75
2023/09/27 09:01:32;;;;;;;12.10;7.75;;;;;;;;;;5017182;28;20476;-75
2023/09/27 09:03:59;;;;;;;13.60;7.43;;;;;;;;;;5015354;28;20506;-75
2023/09/27 09:06:25;;;;;;;17.98;7.07;;;;;;;;;;5016791;28;20036;-75
2023/09/27 09:08:51;;;;;;;13.45;7.78;;;;;;;;;;5018254;28;20059;-77
2023/09/27 09:11:16;;;;;;;17.65;7.85;;;;;;;;;;5018334;28;20033;-77
2023/09/27 09:14:06;;;;;;;14.13;7.03;;;;;;;;;;5017426;28;20025;-77
2023/09/27 09:16:39;;;;;;;14.70;7.25;;;;;;;;;;5019076;28;20068;-79
2023/09/27 09:19:24;;;;;;;17.37;7.30;;;;;;;;;;5019878;28;20030;-77
2023/09/27 09:22:03;;;;;;;9.18;6.32;;;;;;;;;;5018824;28;20290;-78
2023/09/27 09:24:29;;;;;;;15.00;7.53;;;;;;;;;;5024404;28;20029;-78
2023/09/27 09:27:16;;;;;;;15.43;7.38;;;;;;;;;;5020757;28;20029;-78
2023/09/27 09:29:48;;;;;;;14.13;7.43;;;;;;;;;;5021980;28;20599;-78
2023/09/27 09:32:25;;;;;;;12.82;7.50;;;;;;;;;;5022914;28;20084;-79
2023/09/27 09:34:52;;;;;;;13.60;7.57;;;;;;;;;;5023081;28;20022;-78
2023/09/27 09:37:20;;;;;;;14.98;6.80;;;;;;;;;;5023133;28;20026;-78
2023/09/27 09:39:46;;;;;;;14.18;7.07;;;;;;;;;;5022541;28;20036;-82
2023/09/27 09:42:13;;;;;;;12.48;6.65;;;;;;;;;;5022177;28;20473;-78
2023/09/27 09:44:39;;;;;;;11.38;6.88;;;;;;;;;;5020718;28;20021;-78
2023/09/27 09:47:10;;;;;;;12.25;6.60;;;;;;;;;;5016173;28;20524;-80
2023/09/27 09:49:35;;;;;;;10.68;6.43;;;;;;;;;;5018396;28;20109;-78
2023/09/27 09:52:03;;;;;;;14.68;7.40;;;;;;;;;;5019266;28;20057;-79
2023/09/27 09:54:46;;;;;;;15.55;7.18;;;;;;;;;;5017913;28;20439;-78
2023/09/27 09:57:13;;;;;;;9.02;6.45;;;;;;;;;;5018325;28;20060;-79
2023/09/27 10:00:03;;;;;;;14.15;6.90;;;;;;;;;;5016984;28;20030;-77
2023/09/27 10:02:35;;;;;;;6.75;5.43;;;;;;;;;;5018148;28;20392;-77
2023/09/27 10:05:06;;;;;;;10.55;6.03;;;;;;;;;;5016505;28;20121;-77
2023/09/27 10:07:32;;;;;;;11.35;6.78;;;;;;;;;;5017520;28;20401;-77
2023/09/27 10:09:57;;;;;;;15.57;6.78;;;;;;;;;;5017604;28;20050;-77
2023/09/27 10:12:24;;;;;;;9.45;5.78;;;;;;;;;;5017465;28;20527;-77
2023/09/27 10:14:51;;;;;;;13.20;6.82;;;;;;;;;;5018715;28;20110;-78
2023/09/27 10:17:21;;;;;;;9.00;6.10;;;;;;;;;;5022038;28;20080;-78
2023/09/27 10:20:12;;;;;;;9.30;5.85;;;;;;;;;;5024972;28;20025;-78
2023/09/27 10:22:42;;;;;;;12.70;6.28;;;;;;;;;;5023923;28;20384;-78
2023/09/27 10:25:23;;;;;;;9.18;5.50;;;;;;;;;;5022288;28;20387;-79
2023/09/27 10:30:41;;;;;;;8.77;5.10;;;;;;;;;;5031150;22;20046;-79
2023/09/27 10:33:15;;;;;;;10.85;6.20;;;;;;;;;;5023271;28;20029;-78
2023/09/27 10:36:00;;;;;;;9.65;5.72;;;;;;;;;;5022260;28;20428;-78
2023/09/27 10:38:48;;;;;;;9.95;6.55;;;;;;;;;;5021933;28;20089;-79
2023/09/27 10:41:32;;;;;;;10.02;6.20;;;;;;;;;;5022648;28;20021;-78
2023/09/27 10:43:57;;;;;;;12.38;5.82;;;;;;;;;;5021908;28;20384;-78
2023/09/27 10:46:23;;;;;;;9.55;6.07;;;;;;;;;;5021238;28;20025;-78
2023/09/27 10:48:55;;;;;;;10.55;6.07;;;;;;;;;;5020370;28;20033;-78
2023/09/27 10:51:21;;;;;;;10.88;6.50;;;;;;;;;;5020458;28;20028;-78
2023/09/27 10:53:48;;;;;;;8.80;5.00;;;;;;;;;;5017537;28;20402;-77
2023/09/27 10:56:14;;;;;;;13.63;5.82;;;;;;;;;;5015097;28;20416;-77
2023/09/27 10:58:49;;;;;;;8.10;5.90;;;;;;;;;;5014669;28;20112;-77
2023/09/27 11:01:25;;;;;;;15.60;5.78;;;;;;;;;;5015168;28;20522;-77
2023/09/27 11:04:00;;;;;;;13.57;5.03;;;;;;;;;;5013508;28;20496;-77
2023/09/27 11:06:27;;;;;;;8.05;4.72;;;;;;;;;;5015008;28;20124;-77
2023/09/27 11:09:06;;;;;;;7.45;4.57;;;;;;;;;;5015995;28;20057;-77
2023/09/27 11:11:32;;;;;;;12.07;5.20;;;;;;;;;;5014527;28;20026;-77
2023/09/27 11:13:57;;;;;;;11.77;4.93;;;;;;;;;;5019519;28;20076;-77
2023/09/27 11:16:24;;;;;;;12.65;5.90;;;;;;;;;;5012244;28;20057;-77
2023/09/27 11:18:51;;;;;;;8.77;4.20;;;;;;;;;;5014397;28;20057;-76
2023/09/27 11:21:17;;;;;;;14.40;5.32;;;;;;;;;;5014519;28;20034;-76
2023/09/27 11:23:56;;;;;;;6.38;3.90;;;;;;;;;;5013035;28;20052;-76
2023/09/27 11:26:27;;;;;;;7.28;4.50;;;;;;;;;;5012680;28;20403;-76
2023/09/27 11:29:00;;;;;;;8.95;4.82;;;;;;;;;;5011257;28;20040;-75
2023/09/27 11:31:28;;;;;;;7.57;4.20;;;;;;;;;;5013959;28;20464;-77
2023/09/27 11:34:15;;;;;;;9.60;4.15;;;;;;;;;;5012802;28;20334;-76
2023/09/27 11:36:40;;;;;;;6.28;4.10;;;;;;;;;;5014430;28;20026;-76
2023/09/27 11:39:06;;;;;;;4.93;4.15;;;;;;;;;;5014017;28;20048;-76
2023/09/27 11:41:31;;;;;;;10.70;4.10;;;;;;;;;;5014058;28;20045;-77
2023/09/27 11:43:58;;;;;;;9.57;4.30;;;;;;;;;;5014140;28;20017;-76
2023/09/27 11:46:27;;;;;;;8.73;4.25;;;;;;;;;;5013754;28;20018;-76
2023/09/27 11:48:53;;;;;;;8.23;3.65;;;;;;;;;;5012761;28;20030;-77
2023/09/27 11:51:18;;;;;;;7.67;3.77;;;;;;;;;;5015545;28;20029;-76
2023/09/27 11:53:45;;;;;;;4.90;3.15;;;;;;;;;;5014148;28;20313;-76
2023/09/27 11:56:11;;;;;;;11.43;3.72;;;;;;;;;;5012300;28;20014;-77
2023/09/27 11:58:36;;;;;;;4.63;3.75;;;;;;;;;;5013766;28;20072;-77
2023/09/27 12:01:02;;;;;;;3.85;3.15;;;;;;;;;;5012274;28;20022;-77
2023/09/27 12:03:28;;;;;;;7.47;3.72;;;;;;;;;;5013853;28;20029;-77
2023/09/27 12:05:53;;;;;;;9.45;3.75;;;;;;;;;;5013759;28;20412;-77
2023/09/27 12:08:18;;;;;;;10.18;3.78;;;;;;;;;;5013376;28;20033;-77
2023/09/27 12:10:44;;;;;;;15.57;4.43;;;;;;;;;;5013661;28;20025;-77
2023/09/27 12:13:09;;;;;;;4.73;4.13;;;;;;;;;;5013230;28;20741;-77
2023/09/27 12:15:34;;;;;;;9.77;3.90;;;;;;;;;;5013483;28;20255;-77
2023/09/27 12:17:59;;;;;;;13.10;4.13;;;;;;;;;;5013520;28;20331;-77
2023/09/27 12:20:27;;;;;;;8.15;4.57;;;;;;;;;;5013432;28;20419;-77
2023/09/27 12:22:53;;;;;;;7.50;4.05;;;;;;;;;;5013620;28;20496;-77
2023/09/27 12:25:18;;;;;;;7.57;4.65;;;;;;;;;;5013246;28;20026;-77
2023/09/27 12:27:43;;;;;;;7.30;3.95;;;;;;;;;;5014547;28;20463;-76
2023/09/27 12:30:09;;;;;;;9.43;4.40;;;;;;;;;;5013180;28;20427;-73
2023/09/27 12:32:37;;;;;;;8.30;4.00;;;;;;;;;;5012424;28;20270;-74
2023/09/27 12:35:03;;;;;;;10.48;4.15;;;;;;;;;;5012078;28;20029;-74
2023/09/27 12:37:29;;;;;;;7.78;3.45;;;;;;;;;;5012206;28;20029;-74
2023/09/27 12:39:55;;;;;;;7.05;3.33;;;;;;;;;;5012003;28;20052;-75
2023/09/27 12:42:20;;;;;;;5.00;3.15;;;;;;;;;;5012179;28;20025;-74
2023/09/27 12:44:46;;;;;;;6.45;3.60;;;;;;;;;;5011910;28;20053;-76
2023/09/27 12:47:14;;;;;;;7.95;3.78;;;;;;;;;;5009203;28;20068;-74
2023/09/27 12:49:39;;;;;;;9.63;5.25;;;;;;;;;;5009702;28;20129;-74
2023/09/27 12:52:04;;;;;;;9.35;5.25;;;;;;;;;;5010642;28;20603;-74
2023/09/27 12:54:30;;;;;;;7.15;4.07;;;;;;;;;;5011658;28;20057;-74
2023/09/27 12:56:57;;;;;;;8.70;4.10;;;;;;;;;;5011891;28;20120;-73
2023/09/27 12:59:25;;;;;;;9.43;5.40;;;;;;;;;;5011840;28;20026;-73
2023/09/27 13:01:50;;;;;;;6.10;3.97;;;;;;;;;;5013015;28;20149;-73
2023/09/27 13:04:16;;;;;;;9.15;4.78;;;;;;;;;;5012699;28;20104;-74
2023/09/27 13:06:43;;;;;;;10.65;4.25;;;;;;;;;;5011890;28;20523;-73
2023/09/27 13:09:09;;;;;;;12.48;6.25;;;;;;;;;;5011775;28;20029;-74
2023/09/27 13:11:35;;;;;;;9.40;5.25;;;;;;;;;;5011635;28;20030;-74
2023/09/27 13:14:00;;;;;;;9.55;5.43;;;;;;;;;;5011778;28;20112;-73
2023/09/27 13:16:26;;;;;;;10.20;3.70;;;;;;;;;;5011677;28;20108;-75
2023/09/27 13:18:51;;;;;;;8.27;4.53;;;;;;;;;;5011596;28;20076;-74
2023/09/27 13:21:20;;;;;;;11.82;4.30;;;;;;;;;;5011165;28;20570;-73
2023/09/27 13:23:45;;;;;;;10.68;5.40;;;;;;;;;;5009979;28;20060;-73
2023/09/27 13:26:11;;;;;;;5.40;4.15;;;;;;;;;;5011510;28;20018;-73
2023/09/27 13:28:36;;;;;;;6.95;4.68;;;;;;;;;;5011650;28;20046;-73
2023/09/27 13:31:04;;;;;;;6.82;4.82;;;;;;;;;;5011677;28;20038;-73
2023/09/27 13:33:29;;;;;;;11.90;5.35;;;;;;;;;;5011464;28;20416;-73
2023/09/27 13:35:58;;;;;;;6.05;4.22;;;;;;;;;;5012799;28;20014;-73
2023/09/27 13:38:24;;;;;;;6.22;4.13;;;;;;;;;;5012409;28;20050;-74
2023/09/27 13:40:50;;;;;;;6.25;3.67;;;;;;;;;;5015539;28;20022;-73
2023/09/27 13:43:19;;;;;;;9.73;4.10;;;;;;;;;;5016397;28;20076;-73
2023/09/27 13:45:45;;;;;;;7.03;4.30;;;;;;;;;;5015149;28;20025;-74
2023/09/27 13:48:10;;;;;;;16.02;3.83;;;;;;;;;;5014911;28;20507;-74
2023/09/27 13:50:39;;;;;;;5.32;4.07;;;;;;;;;;5014800;28;20105;-73
2023/09/27 13:53:05;;;;;;;12.82;4.72;;;;;;;;;;5014947;28;20071;-73
2023/09/27 13:55:30;;;;;;;8.43;5.35;;;;;;;;;;5015181;28;20021;-73
2023/09/27 13:57:56;;;;;;;8.55;4.47;;;;;;;;;;5015423;28;20049;-74
2023/09/27 14:00:22;;;;;;;10.68;3.97;;;;;;;;;;5014822;28;20030;-73
2023/09/27 14:02:47;;;;;;;7.13;4.95;;;;;;;;;;5014718;28;20029;-75
2023/09/27 14:05:13;;;;;;;5.53;4.00;;;;;;;;;;5014776;28;20022;-75
2023/09/27 14:07:44;;;;;;;12.23;4.80;;;;;;;;;;5016135;28;20099;-73
2023/09/27 14:10:09;;;;;;;9.10;4.38;;;;;;;;;;5015889;28;20112;-76
2023/09/27 14:12:35;;;;;;;13.43;4.80;;;;;;;;;;5015954;28;20111;-76
2023/09/27 14:15:04;;;;;;;32.20;9.68;;;;;;;;;;5016464;28;20026;-77
2023/09/27 14:17:32;;;;;;;12.43;4.80;;;;;;;;;;5016137;28;20392;-76
2023/09/27 14:20:18;;;;;;;10.65;4.13;;;;;;;;;;5016405;28;20412;-77
2023/09/27 14:22:56;;;;;;;16.38;5.22;;;;;;;;;;5017384;28;20034;-78
2023/09/27 14:25:23;;;;;;;7.03;3.30;;;;;;;;;;5015387;28;20523;-73
2023/09/27 14:27:48;;;;;;;25.95;9.32;;;;;;;;;;5014431;28;20025;-73
2023/09/27 14:30:22;;;;;;;10.60;3.88;;;;;;;;;;5013923;28;20396;-74
2023/09/27 14:32:48;;;;;;;8.50;3.90;;;;;;;;;;5014327;28;20029;-75
2023/09/27 14:35:13;;;;;;;9.80;3.97;;;;;;;;;;5015599;28;20018;-76
2023/09/27 14:37:39;;;;;;;6.82;4.55;;;;;;;;;;5015438;28;20125;-76